Data for 11/03/2007

Time Sea-Level Adjusted Pressure Absolute Pressure Temperature Relative Humidity Dew Point   
(mb) (inHg) (mb) (inHg) (C) (F) (%) (C) (F)
00:05 1024 30.24 853 25.19 4.9 40.8 32 -10.3 13.5
00:10 1024 30.24 853 25.19 4.8 40.7 33 -10.2 13.6
00:15 1024 30.24 853 25.19 4.8 40.6 33 -10.1 13.8
00:20 1024 30.24 853 25.19 4.7 40.5 34 -10 14
00:25 1024 30.24 853 25.19 4.7 40.4 34 -10 14
00:30 1024 30.24 853 25.19 4.8 40.6 34 -9.9 14.3
00:35 1024 30.24 853 25.19 4.9 40.8 34 -9.9 14.2
00:40 1024 30.24 853 25.19 4.9 40.9 34 -9.8 14.4
00:45 1024 30.24 853 25.19 4.9 40.8 34 -9.6 14.7
00:50 1024 30.24 853 25.19 4.7 40.5 35 -9.3 15.2
00:55 1024 30.24 853 25.19 4.6 40.3 36 -9.2 15.4
01:00 1024 30.24 853 25.19 4.6 40.2 36 -9.2 15.5
01:05 1024 30.24 853 25.19 4.7 40.4 36 -9.1 15.7
01:10 1024 30.24 853 25.19 4.8 40.6 36 -9 15.8
01:15 1024 30.24 853 25.19 4.8 40.6 36 -9.1 15.7
01:20 1024 30.24 853 25.19 4.8 40.6 36 -9 15.7
01:25 1024 30.24 853 25.19 4.7 40.5 38 -8.5 16.7
01:30 1024 30.24 853 25.19 4.5 40 38 -8.5 16.7
01:35 1024 30.24 853 25.19 4.3 39.8 39 -8.4 16.8
01:40 1024 30.24 853 25.19 4.3 39.8 38 -8.8 16.1
01:45 1024 30.24 853 25.19 4.4 39.8 36 -9.3 15.3
01:50 1024 30.24 853 25.19 4.6 40.3 35 -9.5 14.9
01:55 1024 30.24 853 25.19 4.7 40.5 35 -9.5 14.9
02:00 1024 30.24 853 25.19 4.8 40.6 35 -9.5 14.8
02:05 1024 30.24 853 25.19 4.8 40.6 34 -9.6 14.7
02:10 1024 30.24 853 25.19 4.9 40.8 34 -9.6 14.7
02:15 1024 30.24 853 25.19 5 41 34 -9.5 14.8
02:20 1024 30.24 853 25.19 5 41 35 -9.4 15.1
02:25 1024 30.24 853 25.19 4.9 40.9 35 -9.3 15.3
02:30 1024 30.24 853 25.19 4.9 40.9 35 -9.3 15.2
02:35 1024 30.24 853 25.19 4.9 40.8 35 -9.2 15.4
02:40 1024 30.24 853 25.19 4.9 40.9 35 -9.1 15.5
02:45 1024 30.24 853 25.19 4.9 40.8 36 -9 15.8
02:50 1024 30.24 853 25.19 4.9 40.9 36 -9 15.8
02:55 1024 30.24 853 25.19 5 40.9 36 -9 15.8
03:00 1024 30.24 854 25.22 5 41 36 -8.9 16
03:05 1024 30.24 854 25.22 5.1 41.2 36 -8.9 16
03:10 1024 30.24 854 25.22 5.1 41.2 36 -8.7 16.3
03:15 1024 30.24 854 25.22 5 41.1 36 -8.8 16.1
03:20 1024 30.24 854 25.22 5 41 36 -8.8 16.2
03:25 1024 30.24 854 25.22 5 41 36 -8.9 16
03:30 1024 30.24 853 25.19 5 41 35 -9.2 15.5
03:35 1024 30.24 854 25.22 5.1 41.2 35 -9.2 15.5
03:40 1024 30.24 854 25.22 5.2 41.3 34 -9.3 15.2
03:45 1024 30.24 854 25.22 5.3 41.5 34 -9.5 14.8
03:50 1024 30.24 854 25.22 5.4 41.7 34 -9.3 15.2
03:55 1024 30.24 854 25.22 5.4 41.7 34 -9.4 15
04:00 1024 30.24 854 25.22 5.4 41.7 34 -9.2 15.4
04:05 1024 30.24 854 25.22 5.2 41.4 37 -8.2 17.3
04:10 1024 30.24 853 25.19 4.7 40.4 36 -9.2 15.5
04:15 1024 30.24 853 25.19 4.8 40.6 37 -8.7 16.3
04:20 1024 30.24 853 25.19 5 41.1 35 -9.2 15.5
04:25 1024 30.24 853 25.19 5.2 41.4 34 -9.4 15
04:30 1024 30.24 853 25.19 5.3 41.6 34 -9.4 15.1
04:35 1024 30.24 853 25.19 5.4 41.6 34 -9.2 15.4
04:40 1024 30.24 853 25.19 5.2 41.4 36 -8.8 16.1
04:45 1024 30.24 853 25.19 5 41.1 38 -8.3 17.1
04:50 1024 30.24 853 25.19 4.7 40.5 37 -8.9 15.9
04:55 1024 30.24 853 25.19 4.8 40.7 34 -9.6 14.8
05:00 1024 30.24 853 25.19 5.2 41.4 33 -9.6 14.7
05:05 1024 30.24 853 25.19 5.6 42 33 -9.6 14.7
05:10 1024 30.24 853 25.19 5.8 42.4 32 -9.5 14.8
05:15 1024 30.24 853 25.19 5.7 42.3 32 -9.6 14.7
05:20 1024 30.24 853 25.19 5.7 42.2 32 -9.6 14.7
05:25 1024 30.24 853 25.19 5.7 42.3 32 -9.7 14.5
05:30 1024 30.24 853 25.19 5.9 42.7 31 -9.8 14.3
05:35 1024 30.24 853 25.19 6.1 43 31 -9.8 14.4
05:40 1024 30.24 854 25.22 6.4 43.5 30 -10.1 13.8
05:45 1024 30.24 854 25.22 6.5 43.6 30 -10 14.1
05:50 1024 30.24 854 25.22 6.4 43.5 30 -9.9 14.2
05:55 1024 30.24 854 25.22 6.4 43.4 30 -9.8 14.3
06:00 1024 30.24 854 25.22 6.3 43.3 30 -9.9 14.2
06:05 1024 30.24 854 25.22 6.3 43.4 30 -10 14
06:10 1024 30.24 854 25.22 6.5 43.6 30 -10.1 13.9
06:15 1024 30.24 854 25.22 6.6 43.8 29 -10.1 13.8
06:20 1024 30.24 854 25.22 6.8 44.2 29 -10.1 13.7
06:25 1024 30.24 854 25.22 6.8 44.3 29 -10 14
06:30 1024 30.24 854 25.22 6.8 44.3 29 -10.1 13.8
06:35 1024 30.24 854 25.22 7 44.6 28 -10.2 13.6
06:40 1024 30.24 854 25.22 7.3 45.1 28 -10 14
06:45 1024 30.24 854 25.22 7.4 45.4 28 -10.1 13.8
06:50 1025 30.27 854 25.22 7.5 45.4 28 -9.8 14.3
06:55 1025 30.27 854 25.22 7.5 45.4 28 -9.9 14.3
07:00 1024 30.24 854 25.22 7.4 45.4 28 -9.8 14.4
07:05 1024 30.24 854 25.22 7.4 45.3 28 -9.7 14.5
07:10 1024 30.24 854 25.22 7.4 45.4 28 -9.8 14.4
07:15 1024 30.24 854 25.22 7.5 45.4 28 -9.8 14.3
07:20 1024 30.24 853 25.19 7.5 45.5 28 -9.7 14.5
07:25 1024 30.24 853 25.19 7.5 45.5 29 -9.4 15
07:30 1024 30.24 853 25.19 7.5 45.5 29 -9.2 15.4
07:35 1024 30.24 853 25.19 7.6 45.6 28 -9.6 14.7
07:40 1024 30.24 853 25.19 7.8 46 28 -9.8 14.4
07:45 1024 30.24 853 25.19 8.1 46.5 27 -9.9 14.2
07:50 1024 30.24 853 25.19 8.2 46.7 28 -9.5 14.9
07:55 1024 30.24 853 25.19 8.1 46.6 27 -9.6 14.8
08:00 1024 30.24 853 25.19 8.3 46.9 27 -9.4 15
08:05 1024 30.24 854 25.22 8.2 46.8 28 -9.1 15.7
08:10 1024 30.24 854 25.22 8.1 46.6 28 -9.2 15.5
08:15 1024 30.24 854 25.22 8.2 46.7 28 -9.4 15.1
08:20 1025 30.27 854 25.22 8.5 47.3 27 -9.5 15
08:25 1025 30.27 854 25.22 8.7 47.6 27 -9.2 15.4
08:30 1025 30.27 854 25.22 8.7 47.6 27 -9.3 15.2
08:35 1025 30.27 854 25.22 8.7 47.7 28 -8.7 16.3
08:40 1025 30.27 854 25.22 8.5 47.2 29 -8.6 16.6
08:45 1025 30.27 854 25.22 8.3 46.9 29 -8.6 16.4
08:50 1025 30.27 854 25.22 8.1 46.7 29 -8.7 16.3
08:55 1025 30.27 854 25.22 7.9 46.3 30 -8.8 16.2
09:00 1024 30.24 854 25.22 7.9 46.2 30 -8.7 16.4
09:05 1024 30.24 854 25.22 7.9 46.3 29 -9 15.9
09:10 1024 30.24 854 25.22 8.4 47.1 28 -9.3 15.3
09:15 1024 30.24 854 25.22 8.7 47.7 26 -9.6 14.8
09:20 1024 30.24 854 25.22 8.9 48.1 26 -9.4 15
09:25 1024 30.24 854 25.22 9.1 48.4 26 -9.5 15
09:30 1025 30.27 854 25.22 9.2 48.6 26 -9.3 15.3
09:35 1025 30.27 854 25.22 9.2 48.6 26 -9.3 15.3
09:40 1025 30.27 854 25.22 9.3 48.7 26 -9.1 15.6
09:45 1025 30.27 854 25.22 9.2 48.6 26 -9.1 15.5
09:50 1025 30.27 854 25.22 9.3 48.7 26 -9.3 15.3
09:55 1025 30.27 854 25.22 9.3 48.8 25 -9.6 14.7
10:00 1025 30.27 854 25.22 9.4 48.8 25 -9.6 14.8
10:05 1025 30.27 854 25.22 9.4 48.8 26 -9.3 15.2
10:10 1025 30.27 854 25.22 9.4 48.8 26 -9.2 15.5
10:15 1025 30.27 854 25.22 9.3 48.7 26 -9.4 15.1
10:20 1025 30.27 854 25.22 9.3 48.7 26 -9.3 15.3
10:25 1025 30.27 854 25.22 9.4 48.8 27 -8.8 16.1
10:30 1025 30.27 854 25.22 9.4 49 26 -9 15.9
10:35 1025 30.27 855 25.25 9.6 49.3 27 -8.6 16.6
10:40 1025 30.27 855 25.25 9.7 49.5 27 -8.6 16.6
10:45 1025 30.27 854 25.22 9.7 49.5 27 -8.6 16.5
10:50 1025 30.27 854 25.22 9.8 49.6 26 -8.8 16.2
10:55 1025 30.27 854 25.22 9.9 49.7 26 -8.7 16.4
11:00 1025 30.27 854 25.22 10 50 27 -8.3 17
11:05 1025 30.27 855 25.25 10.2 50.3 26 -8.2 17.2
11:10 1025 30.27 855 25.25 10.3 50.5 26 -8.3 17.1
11:15 1026 30.3 855 25.25 10.3 50.6 27 -8 17.6
11:20 1026 30.3 855 25.25 10.3 50.6 27 -8 17.6
11:25 1025 30.27 855 25.25 10.3 50.5 26 -8.5 16.7
11:30 1026 30.3 855 25.25 10.3 50.6 26 -8.3 17
11:35 1026 30.3 855 25.25 10.5 50.9 26 -8.3 17.1
11:40 1025 30.27 855 25.25 10.7 51.2 26 -8 17.6
11:45 1025 30.27 855 25.25 11.1 51.9 25 -8.3 17.1
11:50 1025 30.27 855 25.25 11.3 52.4 25 -8 17.6
11:55 1025 30.27 855 25.25 11.4 52.5 25 -7.9 17.9
12:00 1025 30.27 855 25.25 11.6 52.9 25 -7.9 17.7
12:05 1025 30.27 854 25.22 11.4 52.5 25 -8 17.7
12:10 1025 30.27 854 25.22 11.5 52.8 25 -7.7 18.1
12:15 1025 30.27 854 25.22 11.8 53.2 25 -7.5 18.5
12:20 1025 30.27 854 25.22 12 53.6 25 -7.3 18.8
12:25 1025 30.27 854 25.22 11.8 53.2 26 -7.3 18.9
12:30 1025 30.27 854 25.22 12.1 53.8 25 -7.3 18.9
12:35 1025 30.27 854 25.22 12.2 54 25 -7.3 18.9
12:40 1025 30.27 854 25.22 12.3 54.1 26 -6.9 19.6
12:45 1025 30.27 854 25.22 12 53.5 26 -7 19.4
12:50 1025 30.27 854 25.22 12.2 53.9 25 -7 19.3
12:55 1025 30.27 854 25.22 12.2 54 25 -7 19.5
13:00 1025 30.27 854 25.22 12.4 54.4 26 -6.7 19.9
13:05 1025 30.27 854 25.22 12.4 54.4 25 -6.9 19.7
13:10 1025 30.27 854 25.22 12.6 54.8 26 -6.5 20.3
13:15 1025 30.27 854 25.22 12.6 54.6 26 -6.5 20.3
13:20 1025 30.27 854 25.22 12.8 55 26 -6.2 20.8
13:25 1024 30.24 854 25.22 12.9 55.3 26 -5.9 21.3
13:30 1024 30.24 854 25.22 13.4 56 26 -5.8 21.6
13:35 1024 30.24 854 25.22 14 57.2 26 -5.2 22.7
13:40 1024 30.24 854 25.22 14.4 57.8 25 -5.3 22.4
13:45 1024 30.24 854 25.22 14.1 57.4 27 -4.7 23.5
13:50 1024 30.24 853 25.19 13.8 56.8 27 -5 23.1
13:55 1024 30.24 853 25.19 13.6 56.6 26 -5.3 22.5
14:00 1024 30.24 853 25.19 13.6 56.4 27 -5.1 22.8
14:05 1024 30.24 853 25.19 13.3 55.9 27 -5.1 22.9
14:10 1024 30.24 853 25.19 13.4 56 27 -5.4 22.4
14:15 1024 30.24 853 25.19 13.4 56.1 27 -5.1 22.9
14:20 1024 30.24 854 25.22 13.4 56.1 27 -5.1 22.9
14:25 1024 30.24 854 25.22 13.3 56 28 -4.7 23.5
14:30 1024 30.24 854 25.22 13.2 55.7 28 -5.1 22.9
14:35 1025 30.27 854 25.22 13 55.3 29 -4.8 23.3
14:40 1025 30.27 854 25.22 12.8 55.1 29 -4.9 23.2
14:45 1025 30.27 854 25.22 12.8 55.1 29 -4.6 23.7
14:50 1025 30.27 854 25.22 12.7 54.9 30 -4.6 23.8
14:55 1025 30.27 854 25.22 12.7 54.8 29 -4.7 23.6
15:00 1025 30.27 854 25.22 12.5 54.5 29 -5 22.9
15:05 1025 30.27 854 25.22 12.3 54.1 30 -4.9 23.2
15:10 1025 30.27 854 25.22 12.3 54.1 30 -4.8 23.3
15:15 1025 30.27 854 25.22 12.2 53.9 31 -4.6 23.7
15:20 1025 30.27 854 25.22 12.2 54 30 -4.7 23.5
15:25 1025 30.27 854 25.22 12.2 54 31 -4.5 23.8
15:30 1025 30.27 854 25.22 12.2 53.9 30 -4.6 23.6
15:35 1025 30.27 854 25.22 12.2 53.9 31 -4.2 24.4
15:40 1025 30.27 854 25.22 12 53.6 31 -4.4 24.1
15:45 1025 30.27 854 25.22 12.1 53.7 30 -4.8 23.4
15:50 1024 30.24 854 25.22 12.1 53.8 31 -4.5 23.9
15:55 1024 30.24 854 25.22 12.1 53.8 31 -4.4 24.1
16:00 1024 30.24 853 25.19 12.1 53.7 31 -4.4 24
16:05 1024 30.24 853 25.19 12 53.5 32 -4.2 24.4
16:10 1024 30.24 853 25.19 11.9 53.5 32 -4.4 24.1
16:15 1024 30.24 853 25.19 11.9 53.5 32 -4.4 24.1
16:20 1024 30.24 853 25.19 12 53.5 32 -4.3 24.2
16:25 1024 30.24 853 25.19 11.9 53.4 32 -4.3 24.2
16:30 1024 30.24 853 25.19 11.9 53.3 31 -4.6 23.7
16:35 1024 30.24 853 25.19 12 53.6 31 -4.5 24
16:40 1024 30.24 853 25.19 12 53.6 32 -4.2 24.4
16:45 1024 30.24 853 25.19 12 53.5 32 -4.3 24.2
16:50 1024 30.24 853 25.19 12 53.5 32 -4.2 24.4
16:55 1024 30.24 853 25.19 11.9 53.4 32 -4.2 24.5
17:00 1024 30.24 853 25.19 11.8 53.2 33 -4.1 24.7
17:05 1024 30.24 853 25.19 11.7 53.1 33 -3.9 25
17:10 1024 30.24 853 25.19 11.7 53 33 -4 24.9
17:15 1024 30.24 853 25.19 11.7 53 33 -3.9 25
17:20 1024 30.24 853 25.19 11.6 52.9 34 -3.7 25.3
17:25 1024 30.24 853 25.19 11.6 52.8 34 -3.7 25.3
17:30 1024 30.24 853 25.19 11.5 52.7 34 -3.6 25.5
17:35 1024 30.24 853 25.19 11.5 52.7 34 -3.8 25.2
17:40 1023 30.21 853 25.19 11.6 53 34 -3.8 25.2
17:45 1023 30.21 853 25.19 11.6 52.9 34 -3.8 25.2
17:50 1023 30.21 853 25.19 11.5 52.8 34 -3.8 25.2
17:55 1023 30.21 853 25.19 11.6 52.8 33 -4 24.8
18:00 1023 30.21 852 25.16 11.6 52.9 34 -3.8 25.1
18:05 1023 30.21 852 25.16 11.4 52.5 35 -3.6 25.4
18:10 1023 30.21 852 25.16 11.2 52.1 35 -3.8 25.2
18:15 1023 30.21 852 25.16 11.2 52.2 34 -4 24.8
18:20 1023 30.21 852 25.16 11.3 52.3 34 -3.8 25.2
18:25 1023 30.21 852 25.16 11.1 51.9 35 -3.8 25.2
18:30 1023 30.21 852 25.16 10.9 51.5 35 -3.9 25.1
18:35 1023 30.21 852 25.16 10.8 51.5 35 -3.9 25
18:40 1023 30.21 852 25.16 10.8 51.4 35 -3.9 24.9
18:45 1023 30.21 852 25.16 10.7 51.3 36 -3.8 25.1
18:50 1023 30.21 852 25.16 10.7 51.3 35 -4.1 24.6
18:55 1023 30.21 852 25.16 10.8 51.4 35 -3.9 25
19:00 1023 30.21 852 25.16 10.7 51.2 36 -3.7 25.3
19:05 1023 30.21 852 25.16 10.6 51 37 -3.6 25.5
19:10 1023 30.21 852 25.16 10.4 50.8 37 -3.6 25.4
19:15 1023 30.21 852 25.16 10.2 50.4 38 -3.4 25.9
19:20 1023 30.21 852 25.16 10.2 50.3 38 -3.6 25.6
19:25 1023 30.21 852 25.16 10.2 50.3 38 -3.6 25.5
19:30 1023 30.21 852 25.16 10.3 50.6 37 -3.8 25.1
19:35 1023 30.21 852 25.16 10.5 50.9 37 -3.7 25.3
19:40 1023 30.21 852 25.16 10.6 51 36 -3.8 25.2
19:45 1023 30.21 852 25.16 10.6 51.1 36 -3.9 25
19:50 1023 30.21 852 25.16 10.8 51.5 35 -4.1 24.5
19:55 1023 30.21 852 25.16 10.9 51.6 35 -3.8 25.1
20:00 1023 30.21 852 25.16 10.7 51.3 36 -3.9 25.1
20:05 1023 30.21 852 25.16 10.7 51.3 35 -4 24.8
20:10 1023 30.21 852 25.16 10.9 51.5 35 -4 24.9
20:15 1023 30.21 852 25.16 10.9 51.6 35 -4 24.9
20:20 1023 30.21 852 25.16 11 51.9 35 -3.9 25
20:25 1023 30.21 852 25.16 11 51.8 35 -3.7 25.3
20:30 1023 30.21 852 25.16 10.8 51.5 36 -3.7 25.4
20:35 1023 30.21 852 25.16 10.8 51.4 36 -3.7 25.3
20:40 1023 30.21 852 25.16 10.9 51.6 35 -3.8 25.1
20:45 1023 30.21 852 25.16 11 51.7 35 -3.8 25.1
20:50 1023 30.21 852 25.16 10.9 51.7 35 -3.8 25.2
20:55 1023 30.21 852 25.16 10.9 51.7 35 -3.8 25.1
21:00 1023 30.21 852 25.16 10.9 51.7 36 -3.7 25.4
21:05 1023 30.21 852 25.16 10.7 51.2 37 -3.3 26.1
21:10 1023 30.21 852 25.16 10.5 50.8 38 -3.4 25.9
21:15 1023 30.21 852 25.16 10.3 50.6 38 -3.4 25.9
21:20 1023 30.21 852 25.16 10.2 50.4 38 -3.3 26
21:25 1023 30.21 852 25.16 10.1 50.1 39 -3.2 26.2
21:30 1023 30.21 852 25.16 9.7 49.5 40 -3.3 26.1
21:35 1023 30.21 852 25.16 9.7 49.4 39 -3.5 25.7
21:40 1023 30.21 852 25.16 9.8 49.7 39 -3.6 25.6
21:45 1023 30.21 852 25.16 10 50 38 -3.7 25.4
21:50 1023 30.21 852 25.16 10.2 50.3 37 -3.7 25.3
21:55 1023 30.21 852 25.16 10.3 50.5 37 -3.8 25.1
22:00 1023 30.21 852 25.16 10.4 50.7 36 -3.9 25
22:05 1023 30.21 852 25.16 10.5 51 36 -4 24.8
22:10 1022 30.18 852 25.16 10.5 51 36 -4 24.8
22:15 1022 30.18 852 25.16 10.5 50.9 36 -3.9 25
22:20 1022 30.18 852 25.16 10.4 50.7 36 -4 24.9
22:25 1022 30.18 852 25.16 10.3 50.5 39 -3 26.6
22:30 1022 30.18 851 25.13 9.3 48.8 41 -3.3 26.1
22:35 1022 30.18 851 25.13 9.2 48.6 41 -3.3 26
22:40 1022 30.18 851 25.13 9 48.1 42 -3.4 26
22:45 1022 30.18 851 25.13 9.2 48.5 40 -3.6 25.5
22:50 1022 30.18 851 25.13 9.4 48.8 40 -3.5 25.8
22:55 1022 30.18 851 25.13 8.9 48.1 43 -2.9 26.7
23:00 1022 30.18 851 25.13 8.4 47.2 44 -3.1 26.5
23:05 1022 30.18 851 25.13 8.7 47.6 41 -3.7 25.3
23:10 1022 30.18 851 25.13 9.3 48.7 38 -4.2 24.4
23:15 1022 30.18 851 25.13 10.6 51.2 34 -4.5 23.9
23:20 1022 30.18 851 25.13 11.3 52.3 33 -4.3 24.3
23:25 1022 30.18 851 25.13 11.5 52.7 33 -4.1 24.6
23:30 1022 30.18 851 25.13 11.4 52.5 33 -4.3 24.3
23:35 1022 30.18 851 25.13 11.4 52.5 33 -4.2 24.5
23:40 1022 30.18 851 25.13 11.4 52.6 33 -4.4 24.1
23:45 1022 30.18 851 25.13 11.4 52.5 33 -4.2 24.4
23:50 1022 30.18 851 25.13 11.1 52 34 -4.2 24.5
23:55 1022 30.18 851 25.13 10.9 51.7 34 -4.3 24.2
24:00 1022 30.18 851 25.13 10.9 51.7 33 -4.7 23.5